createdAt,value
2019-04-06T00:01:20.123Z,8.20
2019-04-06T00:03:52.106Z,8.20
2019-04-06T00:06:21.930Z,8.40
2019-04-06T00:08:52.009Z,8.30
2019-04-06T00:11:22.247Z,8.30
2019-04-06T00:13:52.273Z,8.30
2019-04-06T00:16:22.408Z,8.20
2019-04-06T00:18:52.370Z,8.20
2019-04-06T00:21:22.531Z,8.00
2019-04-06T00:23:52.812Z,8.00
2019-04-06T00:26:22.846Z,7.90
2019-04-06T00:28:52.990Z,7.90
2019-04-06T00:31:49.477Z,8.10
2019-04-06T00:34:19.520Z,8.20
2019-04-06T00:36:49.671Z,8.00
2019-04-06T00:39:19.765Z,7.90
2019-04-06T00:41:49.793Z,8.00
2019-04-06T00:44:19.819Z,7.90
2019-04-06T00:46:49.844Z,8.00
2019-04-06T00:49:19.979Z,7.90
2019-04-06T00:51:51.309Z,7.90
2019-04-06T00:54:21.483Z,7.90
2019-04-06T00:56:51.530Z,7.90
2019-04-06T00:59:21.578Z,7.90
2019-04-06T01:01:51.797Z,7.90
2019-04-06T01:04:21.754Z,7.90
2019-04-06T01:06:52.821Z,7.80
2019-04-06T01:09:23.014Z,7.70
2019-04-06T01:11:54.109Z,7.70
2019-04-06T01:14:24.290Z,7.80
2019-04-06T01:16:54.404Z,7.80
2019-04-06T01:19:24.478Z,7.80
2019-04-06T01:21:54.660Z,7.80
2019-04-06T01:24:28.214Z,7.90
2019-04-06T01:26:58.206Z,7.80
2019-04-06T01:29:28.235Z,7.90
2019-04-06T01:31:58.285Z,7.80
2019-04-06T01:34:28.213Z,7.90
2019-04-06T01:36:58.162Z,7.80
2019-04-06T01:39:28.162Z,7.70
2019-04-06T01:41:58.091Z,7.80
2019-04-06T01:44:28.110Z,7.70
2019-04-06T01:46:58.277Z,7.70
2019-04-06T01:49:28.380Z,7.70
2019-04-06T01:51:58.296Z,7.70
2019-04-06T01:54:29.669Z,7.80
2019-04-06T01:56:59.684Z,7.80
2019-04-06T01:59:29.772Z,7.70
2019-04-06T02:16:20.609Z,7.50
2019-04-06T02:18:50.614Z,7.60
2019-04-06T02:21:20.674Z,7.70
2019-04-06T02:23:50.693Z,7.70
2019-04-06T02:26:29.479Z,7.70
2019-04-06T02:28:52.565Z,7.80
2019-04-06T02:31:47.664Z,7.70
2019-04-06T02:34:39.488Z,7.80
2019-04-06T02:37:43.434Z,7.80
2019-04-06T02:40:31.385Z,7.70
2019-04-06T02:43:10.584Z,7.80
2019-04-06T02:45:40.659Z,7.80
2019-04-06T02:48:12.040Z,7.90
2019-04-06T02:50:42.119Z,7.80
2019-04-06T02:53:12.195Z,7.70
2019-04-06T02:55:42.286Z,7.60
2019-04-06T02:58:12.340Z,7.60
2019-04-06T03:00:42.538Z,7.60
2019-04-06T03:03:12.691Z,7.60
2019-04-06T03:05:42.831Z,7.40
2019-04-06T03:08:12.977Z,7.30
2019-04-06T03:10:43.220Z,7.30
2019-04-06T03:13:13.441Z,7.20
2019-04-06T03:15:44.500Z,7.20
2019-04-06T03:18:14.789Z,7.20
2019-04-06T03:20:44.866Z,7.10
2019-04-06T03:23:14.873Z,7.10
2019-04-06T03:25:44.942Z,7.10
2019-04-06T03:28:14.889Z,7.10
2019-04-06T03:30:44.966Z,7.10
2019-04-06T03:33:15.042Z,7.20
2019-04-06T03:35:48.256Z,7.20
2019-04-06T03:38:17.980Z,7.10
2019-04-06T03:40:48.070Z,7.10
2019-04-06T03:43:18.093Z,7.10
2019-04-06T03:45:48.218Z,7.20
2019-04-06T03:48:18.144Z,7.10
2019-04-06T03:50:48.168Z,7.30
2019-04-06T03:53:18.206Z,7.30
2019-04-06T03:55:48.277Z,7.30
2019-04-06T03:58:18.360Z,7.20
2019-04-06T04:00:48.416Z,7.30
2019-04-06T04:03:19.571Z,7.30
2019-04-06T04:05:49.542Z,7.20
2019-04-06T04:08:19.563Z,7.30
2019-04-06T04:10:49.660Z,7.30
2019-04-06T04:13:19.657Z,7.40
2019-04-06T04:15:49.924Z,7.30
2019-04-06T04:18:20.229Z,7.30
2019-04-06T04:20:51.792Z,7.40
2019-04-06T04:23:21.875Z,7.40
2019-04-06T04:25:51.863Z,7.40
2019-04-06T04:28:23.364Z,7.40
2019-04-06T04:30:53.273Z,7.50
2019-04-06T04:33:23.379Z,7.50
2019-04-06T04:35:53.469Z,7.50
2019-04-06T04:38:23.725Z,7.50
2019-04-06T04:40:53.967Z,7.60
2019-04-06T04:43:24.066Z,7.50
2019-04-06T04:45:54.726Z,7.60
2019-04-06T04:48:24.684Z,7.70
2019-04-06T04:50:56.781Z,7.80
2019-04-06T04:53:26.734Z,7.70
2019-04-06T04:55:56.892Z,7.70
2019-04-06T04:58:26.823Z,8.00
2019-04-06T05:00:56.831Z,7.90
2019-04-06T05:03:26.881Z,7.90
2019-04-06T05:05:56.948Z,7.70
2019-04-06T05:08:27.204Z,7.90
2019-04-06T05:10:57.434Z,8.00
2019-04-06T05:13:27.586Z,7.70
2019-04-06T05:16:23.024Z,7.70
2019-04-06T05:18:53.090Z,7.60
2019-04-06T05:21:24.209Z,7.80
2019-04-06T05:23:54.173Z,7.80
2019-04-06T05:26:24.247Z,7.80
2019-04-06T05:28:54.224Z,7.80
2019-04-06T05:31:24.197Z,7.70
2019-04-06T05:33:54.149Z,7.80
2019-04-06T05:36:24.137Z,8.00
2019-04-06T05:38:54.144Z,8.00
2019-04-06T05:41:24.157Z,8.10
2019-04-06T05:43:54.289Z,8.00
2019-04-06T05:46:24.325Z,8.00
2019-04-06T05:48:54.460Z,8.20
2019-04-06T05:51:24.461Z,8.10
2019-04-06T05:53:54.396Z,9.70
2019-04-06T05:56:24.382Z,11.30
2019-04-06T05:58:56.757Z,12.30
2019-04-06T06:01:26.683Z,13.00
2019-04-06T06:03:56.642Z,13.60
2019-04-06T06:06:26.788Z,12.70
2019-04-06T06:08:56.861Z,11.80
2019-04-06T06:11:27.942Z,10.90
2019-04-06T06:13:57.956Z,10.40
2019-04-06T06:16:27.906Z,10.00
2019-04-06T06:18:57.888Z,9.60
2019-04-06T06:21:28.045Z,9.60
2019-04-06T06:23:58.101Z,9.30
2019-04-06T06:28:50.285Z,8.70
2019-04-06T06:31:20.525Z,8.70
2019-04-06T06:33:50.669Z,8.80
2019-04-06T06:36:22.097Z,8.80
2019-04-06T06:38:52.111Z,8.80
2019-04-06T06:41:22.106Z,8.80
2019-04-06T06:43:52.153Z,8.90
2019-04-06T06:46:23.298Z,8.90
2019-04-06T06:48:53.309Z,8.90
2019-04-06T06:51:23.406Z,8.90
2019-04-06T06:53:53.439Z,8.90
2019-04-06T06:56:23.357Z,8.80
2019-04-06T06:58:53.364Z,8.90
2019-04-06T07:01:24.318Z,8.70
2019-04-06T07:03:54.503Z,9.00
2019-04-06T07:06:24.810Z,8.80
2019-04-06T07:08:54.999Z,8.80
2019-04-06T07:11:24.987Z,8.90
2019-04-06T07:13:55.034Z,8.90
2019-04-06T07:16:25.104Z,9.00
2019-04-06T07:18:55.181Z,8.90
2019-04-06T07:21:25.143Z,9.00
2019-04-06T07:23:55.211Z,9.00
2019-04-06T07:26:26.637Z,9.10
2019-04-06T07:28:56.762Z,9.30
2019-04-06T07:31:26.843Z,9.50
2019-04-06T07:33:56.972Z,9.60
2019-04-06T07:36:27.106Z,9.50
2019-04-06T07:38:57.181Z,9.40
2019-04-06T07:41:27.116Z,9.30
2019-04-06T07:43:57.159Z,9.50
2019-04-06T07:46:27.423Z,9.60
2019-04-06T07:49:07.852Z,9.70
2019-04-06T07:51:30.535Z,9.90
2019-04-06T07:54:00.635Z,10.00
2019-04-06T07:56:30.598Z,10.30
2019-04-06T07:59:01.981Z,10.50
2019-04-06T08:01:32.065Z,10.60
2019-04-06T08:04:02.356Z,10.40
2019-04-06T08:06:32.670Z,10.50
2019-04-06T08:09:03.584Z,10.80
2019-04-06T08:11:33.539Z,10.90
2019-04-06T08:14:03.865Z,11.00
2019-04-06T08:16:35.571Z,11.10
2019-04-06T08:19:05.843Z,10.90
2019-04-06T08:21:36.287Z,10.70
2019-04-06T08:24:06.438Z,11.00
2019-04-06T08:26:36.465Z,11.20
2019-04-06T08:29:06.762Z,11.40
2019-04-06T08:31:36.846Z,11.80
2019-04-06T08:34:07.206Z,11.90
2019-04-06T08:36:37.350Z,11.80
2019-04-06T08:39:09.241Z,11.80
2019-04-06T08:41:39.716Z,11.80
2019-04-06T08:44:09.762Z,11.80
2019-04-06T08:46:39.807Z,11.80
2019-04-06T08:49:09.792Z,12.00
2019-04-06T08:51:39.906Z,12.30
2019-04-06T08:54:10.030Z,12.30
2019-04-06T08:56:40.059Z,12.40
2019-04-06T08:59:12.045Z,12.30
2019-04-06T09:01:41.814Z,12.10
2019-04-06T09:04:11.989Z,12.30
2019-04-06T09:06:42.007Z,12.60
2019-04-06T09:09:12.010Z,12.60
2019-04-06T09:11:42.659Z,12.80
2019-04-06T09:14:12.914Z,12.80
2019-04-06T09:16:42.922Z,12.90
2019-04-06T09:19:12.876Z,13.20
2019-04-06T09:21:42.829Z,13.30
2019-04-06T09:24:13.099Z,13.30
2019-04-06T09:26:43.033Z,13.40
2019-04-06T09:29:22.406Z,13.40
2019-04-06T09:31:48.540Z,13.60
2019-04-06T09:34:18.815Z,13.80
2019-04-06T09:36:49.504Z,13.80
2019-04-06T09:39:20.659Z,13.80
2019-04-06T09:41:50.734Z,13.90
2019-04-06T09:44:34.172Z,14.00
2019-04-06T09:47:10.249Z,14.10
2019-04-06T09:50:13.987Z,14.50
2019-04-06T09:53:09.299Z,14.60
2019-04-06T09:56:08.485Z,15.10
2019-04-06T09:58:56.425Z,15.10
2019-04-06T10:01:43.110Z,15.00
2019-04-06T10:04:32.453Z,14.80
2019-04-06T10:07:24.105Z,14.80
2019-04-06T10:10:19.284Z,14.80
2019-04-06T10:13:03.120Z,15.00
2019-04-06T10:16:07.447Z,14.80
2019-04-06T10:18:48.079Z,15.00
2019-04-06T10:21:35.831Z,15.40
2019-04-06T10:24:16.677Z,15.50
2019-04-06T10:26:57.830Z,15.70
2019-04-06T10:29:47.521Z,15.60
2019-04-06T10:32:30.517Z,14.80
2019-04-06T10:35:28.434Z,15.80
2019-04-06T10:38:07.655Z,15.60
2019-04-06T10:40:57.949Z,15.40
2019-04-06T10:43:36.804Z,15.30
2019-04-06T10:46:18.114Z,15.50
2019-04-06T10:49:07.032Z,15.40
2019-04-06T10:52:13.895Z,15.50
2019-04-06T10:55:01.899Z,15.90
2019-04-06T10:57:49.110Z,15.60
2019-04-06T11:00:38.796Z,15.80
2019-04-06T11:03:18.661Z,16.40
2019-04-06T11:06:16.278Z,16.50
2019-04-06T11:09:05.454Z,17.30
2019-04-06T11:11:54.030Z,18.00
2019-04-06T11:14:40.604Z,18.30
2019-04-06T11:17:34.909Z,17.80
2019-04-06T11:20:14.965Z,18.80
2019-04-06T11:22:51.577Z,19.10
2019-04-06T11:25:41.907Z,19.00
2019-04-06T11:28:23.512Z,18.90
2019-04-06T11:31:14.501Z,19.30
2019-04-06T11:34:15.398Z,19.30
2019-04-06T11:36:54.617Z,19.20
2019-04-06T11:39:32.717Z,18.80
2019-04-06T11:42:33.937Z,19.10
2019-04-06T11:45:15.875Z,19.80
2019-04-06T11:48:04.801Z,19.60
2019-04-06T11:50:44.664Z,20.00
2019-04-06T11:53:32.888Z,19.60
2019-04-06T11:56:11.627Z,19.40
2019-04-06T11:59:04.162Z,19.70
2019-04-06T12:01:48.429Z,20.40
2019-04-06T12:04:27.155Z,20.30
2019-04-06T12:07:10.210Z,20.80
2019-04-06T12:09:58.019Z,20.40
2019-04-06T12:12:46.994Z,18.90
2019-04-06T12:15:40.700Z,19.70
2019-04-06T12:18:21.786Z,20.10
2019-04-06T12:21:13.899Z,20.60
2019-04-06T12:24:11.595Z,21.40
2019-04-06T12:27:12.099Z,20.90
2019-04-06T12:29:55.203Z,20.80
2019-04-06T12:32:44.464Z,20.20
2019-04-06T12:35:45.665Z,19.40
2019-04-06T12:38:25.214Z,18.70
2019-04-06T12:41:12.502Z,19.30
2019-04-06T12:44:01.063Z,20.40
2019-04-06T12:46:51.247Z,21.40
2019-04-06T12:49:38.417Z,21.00
2019-04-06T12:52:30.170Z,21.40
2019-04-06T12:55:08.912Z,22.40
2019-04-06T12:58:00.903Z,22.20
2019-04-06T13:00:49.300Z,21.20
2019-04-06T13:03:21.884Z,19.50
2019-04-06T13:05:58.827Z,19.60
2019-04-06T13:08:40.006Z,20.90
2019-04-06T13:11:27.618Z,21.50
2019-04-06T13:14:19.324Z,21.90
2019-04-06T13:17:04.729Z,21.00
2019-04-06T13:19:42.335Z,21.00
2019-04-06T13:22:23.586Z,21.70
2019-04-06T13:25:07.229Z,22.30
2019-04-06T13:28:02.442Z,22.10
2019-04-06T13:30:46.344Z,23.20
2019-04-06T13:33:30.572Z,23.20
2019-04-06T13:36:11.527Z,23.20
2019-04-06T13:38:59.186Z,23.00
2019-04-06T13:41:35.916Z,22.60
2019-04-06T13:44:43.425Z,22.00
2019-04-06T13:47:24.590Z,21.60
2019-04-06T13:50:04.205Z,20.80
2019-04-06T13:52:55.860Z,19.90
2019-04-06T13:55:45.189Z,19.50
2019-04-06T13:58:21.060Z,19.50
2019-04-06T14:01:17.544Z,20.10
2019-04-06T14:04:06.532Z,20.20
2019-04-06T14:07:04.638Z,20.10
2019-04-06T14:09:46.795Z,20.00
2019-04-06T14:12:34.334Z,20.00
2019-04-06T14:15:14.579Z,20.10
2019-04-06T14:17:59.734Z,20.00
2019-04-06T14:20:39.341Z,20.50
2019-04-06T14:23:34.214Z,20.60
2019-04-06T14:26:20.027Z,20.20
2019-04-06T14:29:01.989Z,20.10
2019-04-06T14:31:55.128Z,20.30
2019-04-06T14:34:42.731Z,20.30
2019-04-06T14:37:29.142Z,19.40
2019-04-06T14:40:27.130Z,19.50
2019-04-06T14:43:14.757Z,19.40
2019-04-06T14:46:03.388Z,19.90
2019-04-06T14:48:52.329Z,20.10
2019-04-06T14:51:28.551Z,20.20
2019-04-06T14:54:20.243Z,20.80
2019-04-06T14:57:08.019Z,20.40
2019-04-06T15:00:15.493Z,19.80
2019-04-06T15:03:01.522Z,19.40
2019-04-06T15:05:47.858Z,20.00
2019-04-06T15:08:35.458Z,20.50
2019-04-06T15:11:23.902Z,20.70
2019-04-06T15:14:25.884Z,20.30
2019-04-06T15:17:20.754Z,20.10
2019-04-06T15:20:01.976Z,19.70
2019-04-06T15:23:02.798Z,19.40
2019-04-06T15:26:09.783Z,19.30
2019-04-06T15:29:15.096Z,19.40
2019-04-06T15:32:06.342Z,19.40
2019-04-06T15:34:49.794Z,19.90
2019-04-06T15:37:26.750Z,19.60
2019-04-06T15:40:14.433Z,19.80
2019-04-06T15:43:02.906Z,20.10
2019-04-06T15:45:55.371Z,20.40
2019-04-06T15:48:42.787Z,20.00
2019-04-06T15:51:35.416Z,19.00
2019-04-06T15:54:25.511Z,19.30
2019-04-06T15:57:06.548Z,19.10
2019-04-06T15:59:43.029Z,19.30
2019-04-06T16:02:50.335Z,19.50
2019-04-06T16:05:56.827Z,18.70
2019-04-06T16:08:35.795Z,18.40
2019-04-06T16:11:16.222Z,17.50
2019-04-06T16:14:06.026Z,17.40
2019-04-06T16:16:47.497Z,17.00
2019-04-06T16:19:30.920Z,16.60
2019-04-06T16:22:18.642Z,16.50
2019-04-06T16:24:57.020Z,16.60
2019-04-06T16:27:38.151Z,16.40
2019-04-06T16:30:40.412Z,16.30
2019-04-06T16:33:41.281Z,16.60
2019-04-06T16:36:27.003Z,16.60
2019-04-06T16:39:12.388Z,16.40
2019-04-06T16:42:19.475Z,16.60
2019-04-06T16:45:00.749Z,16.20
2019-04-06T16:47:41.798Z,15.90
2019-04-06T16:50:22.501Z,15.90
2019-04-06T16:53:04.018Z,16.20
2019-04-06T16:55:55.360Z,16.30
2019-04-06T16:58:36.744Z,16.50
2019-04-06T17:01:13.848Z,16.40
2019-04-06T17:04:01.629Z,16.90
2019-04-06T17:06:38.406Z,17.10
2019-04-06T17:09:28.809Z,17.10
2019-04-06T17:12:23.299Z,17.20
2019-04-06T17:15:21.262Z,16.90
2019-04-06T17:18:09.253Z,16.50
2019-04-06T17:20:49.489Z,16.20
2019-04-06T17:23:50.651Z,15.70
2019-04-06T17:26:58.117Z,15.20
2019-04-06T17:29:44.916Z,14.90
2019-04-06T17:32:38.052Z,14.80
2019-04-06T17:35:26.506Z,14.70
2019-04-06T17:41:05.355Z,14.20
2019-04-06T17:43:52.819Z,14.20
2019-04-06T17:46:46.171Z,14.10
2019-04-06T17:49:44.164Z,14.10
2019-04-06T17:52:31.539Z,14.00
2019-04-06T17:55:10.253Z,13.90
2019-04-06T17:57:55.240Z,13.70
2019-04-06T18:00:50.475Z,13.70
2019-04-06T18:03:44.709Z,13.50
2019-04-06T18:06:30.146Z,13.40
2019-04-06T18:09:31.605Z,13.50
2019-04-06T18:12:12.326Z,13.50
2019-04-06T18:14:42.921Z,13.40
2019-04-06T18:17:13.999Z,13.30
2019-04-06T18:19:44.017Z,13.20
2019-04-06T18:22:14.098Z,13.20
2019-04-06T18:24:44.160Z,13.20
2019-04-06T18:27:14.149Z,13.10
2019-04-06T18:29:44.359Z,13.10
2019-04-06T18:32:21.073Z,13.00
2019-04-06T18:34:52.593Z,13.00
2019-04-06T18:37:43.721Z,13.10
2019-04-06T18:40:21.440Z,13.00
2019-04-06T18:42:51.898Z,13.00
2019-04-06T18:45:22.163Z,12.90
2019-04-06T18:47:52.333Z,13.10
2019-04-06T18:50:33.311Z,12.90
2019-04-06T18:52:54.866Z,12.90
2019-04-06T18:55:25.729Z,12.90
2019-04-06T18:57:59.524Z,12.80
2019-04-06T19:00:29.697Z,12.70
2019-04-06T19:03:11.067Z,12.60
2019-04-06T19:05:32.189Z,12.60
2019-04-06T19:08:02.176Z,12.60
2019-04-06T19:10:32.609Z,12.60
2019-04-06T19:13:03.183Z,12.70
2019-04-06T19:15:33.328Z,12.70
2019-04-06T19:18:03.412Z,12.60
2019-04-06T19:20:33.519Z,12.60
2019-04-06T19:23:03.718Z,12.70
2019-04-06T19:25:35.298Z,12.60
2019-04-06T19:28:06.757Z,12.60
2019-04-06T19:30:37.524Z,12.50
2019-04-06T19:33:08.307Z,12.40
2019-04-06T19:35:38.508Z,12.30
2019-04-06T19:38:08.694Z,12.30
2019-04-06T19:40:39.361Z,12.30
2019-04-06T19:43:09.919Z,12.20
2019-04-06T19:45:40.832Z,12.30
2019-04-06T19:48:11.906Z,12.20
2019-04-06T19:50:42.294Z,12.20
2019-04-06T19:53:13.715Z,12.00
2019-04-06T19:55:44.610Z,12.00
2019-04-06T19:58:15.234Z,11.90
2019-04-06T20:00:45.662Z,11.90
2019-04-06T20:03:16.701Z,11.90
2019-04-06T20:05:46.873Z,11.90
2019-04-06T20:08:17.283Z,11.90
2019-04-06T20:10:48.003Z,11.80
2019-04-06T20:13:17.987Z,11.70
2019-04-06T20:15:49.089Z,11.80
2019-04-06T20:18:19.801Z,11.70
2019-04-06T20:20:50.598Z,11.70
2019-04-06T20:23:20.927Z,11.60
2019-04-06T20:25:52.117Z,11.40
2019-04-06T20:28:22.376Z,11.40
2019-04-06T20:30:52.423Z,11.40
2019-04-06T20:33:23.190Z,11.40
2019-04-06T20:35:53.433Z,11.40
2019-04-06T20:38:24.625Z,11.40
2019-04-06T20:40:56.197Z,11.40
2019-04-06T20:43:26.823Z,11.20
2019-04-06T20:45:57.570Z,11.20
2019-04-06T20:48:28.225Z,11.20
2019-04-06T20:50:58.458Z,11.10
2019-04-06T20:53:29.061Z,11.10
2019-04-06T20:55:59.162Z,11.10
2019-04-06T20:58:29.185Z,11.10
2019-04-06T21:00:59.540Z,11.30
2019-04-06T21:03:29.853Z,11.10
2019-04-06T21:05:59.861Z,11.00
2019-04-06T21:08:29.945Z,11.00
2019-04-06T21:11:00.292Z,10.90
2019-04-06T21:13:30.383Z,10.90
2019-04-06T21:16:00.852Z,10.80
2019-04-06T21:18:31.060Z,10.90
2019-04-06T21:21:01.088Z,12.20
2019-04-06T21:23:31.333Z,13.20
2019-04-06T21:26:01.783Z,12.90
2019-04-06T21:28:32.093Z,12.00
2019-04-06T21:31:02.335Z,12.00
2019-04-06T21:33:32.328Z,12.00
2019-04-06T21:36:02.639Z,11.50
2019-04-06T21:38:33.220Z,11.10
2019-04-06T21:41:03.201Z,11.00
2019-04-06T21:43:33.298Z,10.90
2019-04-06T21:46:03.358Z,10.80
2019-04-06T21:48:35.104Z,10.70
2019-04-06T21:51:05.479Z,10.60
2019-04-06T21:53:35.816Z,10.50
2019-04-06T21:56:08.180Z,10.50
2019-04-06T21:58:38.089Z,10.40
2019-04-06T22:01:09.487Z,10.30
2019-04-06T22:03:39.989Z,10.40
2019-04-06T22:06:10.293Z,10.40
2019-04-06T22:08:40.734Z,10.20
2019-04-06T22:11:10.848Z,10.10
2019-04-06T22:13:42.190Z,10.20
2019-04-06T22:16:12.941Z,10.30
2019-04-06T22:18:43.086Z,10.20
2019-04-06T22:21:13.452Z,10.10
2019-04-06T22:23:45.081Z,9.90
2019-04-06T22:26:15.342Z,10.10
2019-04-06T22:28:45.818Z,10.20
2019-04-06T22:31:16.457Z,10.10
2019-04-06T22:33:46.516Z,10.10
2019-04-06T22:36:16.626Z,10.00
2019-04-06T22:38:48.155Z,10.00
2019-04-06T22:41:18.407Z,9.80
2019-04-06T22:43:49.570Z,9.90
2019-04-06T22:46:20.244Z,9.90
2019-04-06T22:48:50.714Z,9.80
2019-04-06T22:51:21.976Z,9.90
2019-04-06T22:53:52.058Z,10.00
2019-04-06T22:56:23.023Z,9.80
2019-04-06T22:58:53.639Z,9.70
2019-04-06T23:01:25.249Z,9.80
2019-04-06T23:04:13.342Z,9.70
2019-04-06T23:06:56.486Z,9.60
2019-04-06T23:09:26.914Z,9.50
2019-04-06T23:11:57.159Z,9.60
2019-04-06T23:14:28.472Z,9.60
2019-04-06T23:16:58.723Z,9.60
2019-04-06T23:19:29.359Z,9.50
2019-04-06T23:21:59.675Z,9.60
2019-04-06T23:24:29.694Z,9.50
2019-04-06T23:26:59.771Z,9.50
2019-04-06T23:29:29.850Z,9.40
2019-04-06T23:32:01.099Z,9.30
2019-04-06T23:34:31.291Z,9.30
2019-04-06T23:37:01.340Z,9.40
2019-04-06T23:39:31.289Z,9.60
2019-04-06T23:42:01.436Z,9.50
2019-04-06T23:44:31.827Z,9.40
2019-04-06T23:47:02.016Z,9.40
2019-04-06T23:49:32.756Z,9.60
2019-04-06T23:52:03.689Z,9.50
2019-04-06T23:54:33.769Z,9.30
2019-04-06T23:57:05.925Z,9.20
2019-04-06T23:59:36.159Z,9.40
